sensor_id;sensor_type;location;lat;lon;timestamp;P1;durP1;ratioP1;P2;durP2;ratioP2
24090;SDS011;12272;52.426;17.100;2024-03-25T00:03:09;7.60;;;6.20;;
24090;SDS011;12272;52.426;17.100;2024-03-25T00:08:11;8.50;;;6.90;;
24090;SDS011;12272;52.426;17.100;2024-03-25T00:13:12;8.40;;;6.77;;
24090;SDS011;12272;52.426;17.100;2024-03-25T00:18:14;9.07;;;6.77;;
24090;SDS011;12272;52.426;17.100;2024-03-25T00:23:15;8.53;;;7.20;;
24090;SDS011;12272;52.426;17.100;2024-03-25T00:28:17;11.67;;;7.93;;
24090;SDS011;12272;52.426;17.100;2024-03-25T00:33:20;10.63;;;8.13;;
24090;SDS011;12272;52.426;17.100;2024-03-25T00:38:21;10.80;;;7.20;;
24090;SDS011;12272;52.426;17.100;2024-03-25T00:43:23;12.97;;;7.53;;
24090;SDS011;12272;52.426;17.100;2024-03-25T00:48:24;8.77;;;7.33;;
24090;SDS011;12272;52.426;17.100;2024-03-25T00:53:26;10.07;;;7.27;;
24090;SDS011;12272;52.426;17.100;2024-03-25T00:58:27;7.57;;;5.90;;
24090;SDS011;12272;52.426;17.100;2024-03-25T01:03:29;9.73;;;6.53;;
24090;SDS011;12272;52.426;17.100;2024-03-25T01:08:31;8.00;;;6.23;;
24090;SDS011;12272;52.426;17.100;2024-03-25T01:13:32;10.33;;;6.33;;
24090;SDS011;12272;52.426;17.100;2024-03-25T01:18:34;10.53;;;6.30;;
24090;SDS011;12272;52.426;17.100;2024-03-25T01:23:36;9.23;;;5.73;;
24090;SDS011;12272;52.426;17.100;2024-03-25T01:28:37;9.03;;;6.10;;
24090;SDS011;12272;52.426;17.100;2024-03-25T01:33:39;8.97;;;6.60;;
24090;SDS011;12272;52.426;17.100;2024-03-25T01:38:41;6.87;;;5.57;;
24090;SDS011;12272;52.426;17.100;2024-03-25T01:43:42;7.47;;;6.00;;
24090;SDS011;12272;52.426;17.100;2024-03-25T01:48:44;6.97;;;5.57;;
24090;SDS011;12272;52.426;17.100;2024-03-25T01:53:46;6.50;;;5.17;;
24090;SDS011;12272;52.426;17.100;2024-03-25T01:58:48;7.37;;;5.70;;
24090;SDS011;12272;52.426;17.100;2024-03-25T02:03:52;5.83;;;4.87;;
24090;SDS011;12272;52.426;17.100;2024-03-25T02:08:55;9.27;;;5.63;;
24090;SDS011;12272;52.426;17.100;2024-03-25T02:13:58;10.97;;;5.73;;
24090;SDS011;12272;52.426;17.100;2024-03-25T02:18:59;7.33;;;5.13;;
24090;SDS011;12272;52.426;17.100;2024-03-25T02:24:01;7.17;;;5.53;;
24090;SDS011;12272;52.426;17.100;2024-03-25T02:29:11;8.50;;;4.53;;
24090;SDS011;12272;52.426;17.100;2024-03-25T02:34:12;4.87;;;4.47;;
24090;SDS011;12272;52.426;17.100;2024-03-25T02:39:14;7.20;;;4.67;;
24090;SDS011;12272;52.426;17.100;2024-03-25T02:44:15;6.00;;;4.93;;
24090;SDS011;12272;52.426;17.100;2024-03-25T02:49:17;4.83;;;4.43;;
24090;SDS011;12272;52.426;17.100;2024-03-25T02:54:19;6.43;;;4.50;;
24090;SDS011;12272;52.426;17.100;2024-03-25T02:59:20;5.80;;;4.80;;
24090;SDS011;12272;52.426;17.100;2024-03-25T03:04:22;5.67;;;4.40;;
24090;SDS011;12272;52.426;17.100;2024-03-25T03:09:23;5.37;;;4.57;;
24090;SDS011;12272;52.426;17.100;2024-03-25T03:14:26;4.77;;;4.20;;
24090;SDS011;12272;52.426;17.100;2024-03-25T03:19:27;4.40;;;4.00;;
24090;SDS011;12272;52.426;17.100;2024-03-25T03:24:30;6.90;;;3.73;;
24090;SDS011;12272;52.426;17.100;2024-03-25T03:29:31;8.93;;;4.17;;
24090;SDS011;12272;52.426;17.100;2024-03-25T03:34:33;5.30;;;3.80;;
24090;SDS011;12272;52.426;17.100;2024-03-25T03:39:34;4.13;;;3.57;;
24090;SDS011;12272;52.426;17.100;2024-03-25T03:44:36;5.10;;;4.30;;
24090;SDS011;12272;52.426;17.100;2024-03-25T03:49:37;4.53;;;4.13;;
24090;SDS011;12272;52.426;17.100;2024-03-25T03:54:39;5.27;;;4.50;;
24090;SDS011;12272;52.426;17.100;2024-03-25T03:59:40;5.80;;;4.67;;
24090;SDS011;12272;52.426;17.100;2024-03-25T04:04:42;6.93;;;5.13;;
24090;SDS011;12272;52.426;17.100;2024-03-25T04:09:44;9.87;;;5.90;;
24090;SDS011;12272;52.426;17.100;2024-03-25T04:14:48;9.13;;;5.47;;
24090;SDS011;12272;52.426;17.100;2024-03-25T04:19:55;6.97;;;5.03;;
24090;SDS011;12272;52.426;17.100;2024-03-25T04:25:01;4.97;;;4.57;;
24090;SDS011;12272;52.426;17.100;2024-03-25T04:30:02;7.30;;;5.77;;
24090;SDS011;12272;52.426;17.100;2024-03-25T04:35:04;4.17;;;3.77;;
24090;SDS011;12272;52.426;17.100;2024-03-25T04:40:07;6.17;;;5.13;;
24090;SDS011;12272;52.426;17.100;2024-03-25T04:45:09;6.10;;;5.37;;
24090;SDS011;12272;52.426;17.100;2024-03-25T04:50:12;7.07;;;5.63;;
24090;SDS011;12272;52.426;17.100;2024-03-25T04:55:14;8.20;;;6.40;;
24090;SDS011;12272;52.426;17.100;2024-03-25T05:00:16;6.17;;;5.57;;
24090;SDS011;12272;52.426;17.100;2024-03-25T05:05:18;7.07;;;6.37;;
24090;SDS011;12272;52.426;17.100;2024-03-25T05:10:19;6.97;;;6.00;;
24090;SDS011;12272;52.426;17.100;2024-03-25T05:15:21;12.77;;;7.17;;
24090;SDS011;12272;52.426;17.100;2024-03-25T05:20:22;10.60;;;8.30;;
24090;SDS011;12272;52.426;17.100;2024-03-25T05:25:24;13.20;;;9.27;;
24090;SDS011;12272;52.426;17.100;2024-03-25T05:30:29;17.87;;;11.10;;
24090;SDS011;12272;52.426;17.100;2024-03-25T05:35:30;18.00;;;11.47;;
24090;SDS011;12272;52.426;17.100;2024-03-25T05:40:35;14.07;;;10.07;;
24090;SDS011;12272;52.426;17.100;2024-03-25T05:45:36;14.07;;;10.47;;
24090;SDS011;12272;52.426;17.100;2024-03-25T05:50:37;11.13;;;9.80;;
24090;SDS011;12272;52.426;17.100;2024-03-25T05:55:39;9.60;;;8.60;;
24090;SDS011;12272;52.426;17.100;2024-03-25T06:00:41;15.63;;;10.07;;
24090;SDS011;12272;52.426;17.100;2024-03-25T06:05:43;9.23;;;7.53;;
24090;SDS011;12272;52.426;17.100;2024-03-25T06:10:44;9.80;;;7.50;;
24090;SDS011;12272;52.426;17.100;2024-03-25T06:15:46;13.23;;;8.73;;
24090;SDS011;12272;52.426;17.100;2024-03-25T06:20:48;16.77;;;10.40;;
24090;SDS011;12272;52.426;17.100;2024-03-25T06:25:50;12.70;;;10.93;;
24090;SDS011;12272;52.426;17.100;2024-03-25T06:30:53;24.47;;;17.67;;
24090;SDS011;12272;52.426;17.100;2024-03-25T06:36:13;21.30;;;13.13;;
24090;SDS011;12272;52.426;17.100;2024-03-25T06:41:14;17.80;;;10.23;;
24090;SDS011;12272;52.426;17.100;2024-03-25T06:46:16;12.20;;;8.57;;
24090;SDS011;12272;52.426;17.100;2024-03-25T06:51:18;11.57;;;7.63;;
24090;SDS011;12272;52.426;17.100;2024-03-25T06:56:19;11.87;;;7.80;;
24090;SDS011;12272;52.426;17.100;2024-03-25T07:01:20;8.40;;;6.53;;
24090;SDS011;12272;52.426;17.100;2024-03-25T07:06:22;5.60;;;4.83;;
24090;SDS011;12272;52.426;17.100;2024-03-25T07:11:26;8.03;;;5.23;;
24090;SDS011;12272;52.426;17.100;2024-03-25T07:16:28;5.87;;;5.27;;
24090;SDS011;12272;52.426;17.100;2024-03-25T07:21:29;6.23;;;5.00;;
24090;SDS011;12272;52.426;17.100;2024-03-25T07:26:31;6.20;;;4.67;;
24090;SDS011;12272;52.426;17.100;2024-03-25T07:31:32;8.07;;;5.60;;
24090;SDS011;12272;52.426;17.100;2024-03-25T07:36:34;7.30;;;4.70;;
24090;SDS011;12272;52.426;17.100;2024-03-25T07:41:37;7.83;;;5.93;;
24090;SDS011;12272;52.426;17.100;2024-03-25T07:46:38;6.73;;;5.37;;
24090;SDS011;12272;52.426;17.100;2024-03-25T07:51:40;7.50;;;6.37;;
24090;SDS011;12272;52.426;17.100;2024-03-25T07:56:41;7.67;;;6.20;;
24090;SDS011;12272;52.426;17.100;2024-03-25T08:01:43;7.00;;;5.20;;
24090;SDS011;12272;52.426;17.100;2024-03-25T08:06:45;9.80;;;6.87;;
24090;SDS011;12272;52.426;17.100;2024-03-25T08:11:47;10.37;;;6.97;;
24090;SDS011;12272;52.426;17.100;2024-03-25T08:16:50;10.43;;;8.07;;
24090;SDS011;12272;52.426;17.100;2024-03-25T08:21:51;10.43;;;5.97;;
24090;SDS011;12272;52.426;17.100;2024-03-25T08:26:53;9.83;;;8.77;;
24090;SDS011;12272;52.426;17.100;2024-03-25T08:31:55;11.23;;;7.43;;
24090;SDS011;12272;52.426;17.100;2024-03-25T08:36:56;7.17;;;6.47;;
24090;SDS011;12272;52.426;17.100;2024-03-25T08:41:58;8.90;;;7.77;;
24090;SDS011;12272;52.426;17.100;2024-03-25T08:46:59;8.77;;;7.30;;
24090;SDS011;12272;52.426;17.100;2024-03-25T08:52:01;10.77;;;6.63;;
24090;SDS011;12272;52.426;17.100;2024-03-25T08:57:02;4.83;;;4.30;;
24090;SDS011;12272;52.426;17.100;2024-03-25T09:02:04;6.47;;;4.63;;
24090;SDS011;12272;52.426;17.100;2024-03-25T09:07:07;6.97;;;4.53;;
24090;SDS011;12272;52.426;17.100;2024-03-25T09:12:09;7.93;;;4.97;;
24090;SDS011;12272;52.426;17.100;2024-03-25T09:17:12;5.67;;;4.27;;
24090;SDS011;12272;52.426;17.100;2024-03-25T09:22:13;8.20;;;3.60;;
24090;SDS011;12272;52.426;17.100;2024-03-25T09:27:15;8.03;;;4.17;;
24090;SDS011;12272;52.426;17.100;2024-03-25T09:32:17;4.53;;;3.40;;
24090;SDS011;12272;52.426;17.100;2024-03-25T09:37:18;7.87;;;3.80;;
24090;SDS011;12272;52.426;17.100;2024-03-25T09:42:23;5.37;;;3.87;;
24090;SDS011;12272;52.426;17.100;2024-03-25T09:47:27;2.60;;;2.33;;
24090;SDS011;12272;52.426;17.100;2024-03-25T09:52:28;6.67;;;4.83;;
24090;SDS011;12272;52.426;17.100;2024-03-25T09:57:30;7.53;;;3.43;;
24090;SDS011;12272;52.426;17.100;2024-03-25T10:02:31;6.70;;;3.87;;
24090;SDS011;12272;52.426;17.100;2024-03-25T10:07:35;6.90;;;4.57;;
24090;SDS011;12272;52.426;17.100;2024-03-25T10:12:36;6.40;;;5.07;;
24090;SDS011;12272;52.426;17.100;2024-03-25T10:17:38;5.40;;;3.17;;
24090;SDS011;12272;52.426;17.100;2024-03-25T10:22:41;4.33;;;2.77;;
24090;SDS011;12272;52.426;17.100;2024-03-25T10:27:52;7.37;;;4.50;;
24090;SDS011;12272;52.426;17.100;2024-03-25T10:33:03;4.57;;;3.13;;
24090;SDS011;12272;52.426;17.100;2024-03-25T10:38:07;5.67;;;4.90;;
24090;SDS011;12272;52.426;17.100;2024-03-25T10:43:13;5.60;;;4.90;;
24090;SDS011;12272;52.426;17.100;2024-03-25T10:53:58;7.77;;;6.93;;
24090;SDS011;12272;52.426;17.100;2024-03-25T10:59:00;6.20;;;4.37;;
24090;SDS011;12272;52.426;17.100;2024-03-25T11:04:02;5.70;;;5.03;;
24090;SDS011;12272;52.426;17.100;2024-03-25T11:09:06;7.10;;;6.40;;
24090;SDS011;12272;52.426;17.100;2024-03-25T11:14:15;5.70;;;4.90;;
24090;SDS011;12272;52.426;17.100;2024-03-25T11:19:17;5.80;;;5.10;;
24090;SDS011;12272;52.426;17.100;2024-03-25T11:24:37;5.07;;;3.43;;
24090;SDS011;12272;52.426;17.100;2024-03-25T11:29:44;6.80;;;6.03;;
24090;SDS011;12272;52.426;17.100;2024-03-25T11:34:52;4.77;;;4.37;;
24090;SDS011;12272;52.426;17.100;2024-03-25T11:40:00;7.40;;;6.47;;
24090;SDS011;12272;52.426;17.100;2024-03-25T11:45:05;6.73;;;5.87;;
24090;SDS011;12272;52.426;17.100;2024-03-25T11:50:09;6.27;;;5.10;;
24090;SDS011;12272;52.426;17.100;2024-03-25T11:55:16;3.87;;;3.07;;
24090;SDS011;12272;52.426;17.100;2024-03-25T12:00:18;4.53;;;3.50;;
24090;SDS011;12272;52.426;17.100;2024-03-25T12:05:20;4.63;;;2.83;;
24090;SDS011;12272;52.426;17.100;2024-03-25T12:10:22;4.03;;;3.03;;
24090;SDS011;12272;52.426;17.100;2024-03-25T12:15:42;3.63;;;2.70;;
24090;SDS011;12272;52.426;17.100;2024-03-25T12:20:47;4.37;;;2.93;;
24090;SDS011;12272;52.426;17.100;2024-03-25T12:25:49;3.53;;;2.60;;
24090;SDS011;12272;52.426;17.100;2024-03-25T12:30:54;4.00;;;3.37;;
24090;SDS011;12272;52.426;17.100;2024-03-25T12:35:56;4.53;;;4.00;;
24090;SDS011;12272;52.426;17.100;2024-03-25T12:41:08;4.07;;;2.90;;
24090;SDS011;12272;52.426;17.100;2024-03-25T12:46:11;2.80;;;2.37;;
24090;SDS011;12272;52.426;17.100;2024-03-25T12:51:13;2.30;;;2.00;;
24090;SDS011;12272;52.426;17.100;2024-03-25T12:56:15;3.23;;;2.10;;
24090;SDS011;12272;52.426;17.100;2024-03-25T13:01:17;3.20;;;2.23;;
24090;SDS011;12272;52.426;17.100;2024-03-25T13:06:19;3.93;;;2.47;;
24090;SDS011;12272;52.426;17.100;2024-03-25T13:11:20;3.00;;;1.77;;
24090;SDS011;12272;52.426;17.100;2024-03-25T13:16:22;2.10;;;1.70;;
24090;SDS011;12272;52.426;17.100;2024-03-25T13:21:24;9.87;;;2.57;;
24090;SDS011;12272;52.426;17.100;2024-03-25T13:26:26;5.47;;;2.13;;
24090;SDS011;12272;52.426;17.100;2024-03-25T13:31:27;2.10;;;1.90;;
24090;SDS011;12272;52.426;17.100;2024-03-25T13:36:29;2.33;;;2.13;;
24090;SDS011;12272;52.426;17.100;2024-03-25T13:41:32;5.47;;;2.37;;
24090;SDS011;12272;52.426;17.100;2024-03-25T13:46:34;6.23;;;2.90;;
24090;SDS011;12272;52.426;17.100;2024-03-25T13:51:35;5.27;;;2.80;;
24090;SDS011;12272;52.426;17.100;2024-03-25T13:56:37;4.23;;;3.00;;
24090;SDS011;12272;52.426;17.100;2024-03-25T14:01:38;5.10;;;3.10;;
24090;SDS011;12272;52.426;17.100;2024-03-25T14:06:41;5.13;;;2.97;;
24090;SDS011;12272;52.426;17.100;2024-03-25T14:11:43;4.60;;;2.67;;
24090;SDS011;12272;52.426;17.100;2024-03-25T14:16:44;4.43;;;4.00;;
24090;SDS011;12272;52.426;17.100;2024-03-25T14:21:48;4.07;;;3.77;;
24090;SDS011;12272;52.426;17.100;2024-03-25T14:26:50;4.67;;;3.80;;
24090;SDS011;12272;52.426;17.100;2024-03-25T14:31:51;4.43;;;4.03;;
24090;SDS011;12272;52.426;17.100;2024-03-25T14:36:53;4.20;;;3.83;;
24090;SDS011;12272;52.426;17.100;2024-03-25T14:41:55;5.57;;;4.27;;
24090;SDS011;12272;52.426;17.100;2024-03-25T14:46:57;3.30;;;2.40;;
24090;SDS011;12272;52.426;17.100;2024-03-25T14:51:59;4.20;;;3.10;;
24090;SDS011;12272;52.426;17.100;2024-03-25T14:57:00;2.63;;;2.43;;
24090;SDS011;12272;52.426;17.100;2024-03-25T15:02:02;3.57;;;3.17;;
24090;SDS011;12272;52.426;17.100;2024-03-25T15:07:04;3.90;;;3.50;;
24090;SDS011;12272;52.426;17.100;2024-03-25T15:12:06;3.20;;;2.40;;
24090;SDS011;12272;52.426;17.100;2024-03-25T15:17:08;4.17;;;3.03;;
24090;SDS011;12272;52.426;17.100;2024-03-25T15:22:09;2.70;;;2.50;;
24090;SDS011;12272;52.426;17.100;2024-03-25T15:27:11;5.03;;;3.37;;
24090;SDS011;12272;52.426;17.100;2024-03-25T15:32:13;2.90;;;2.60;;
24090;SDS011;12272;52.426;17.100;2024-03-25T15:37:15;3.37;;;3.07;;
24090;SDS011;12272;52.426;17.100;2024-03-25T15:42:17;5.40;;;4.03;;
24090;SDS011;12272;52.426;17.100;2024-03-25T15:47:20;5.27;;;3.73;;
24090;SDS011;12272;52.426;17.100;2024-03-25T15:52:22;2.27;;;1.50;;
24090;SDS011;12272;52.426;17.100;2024-03-25T15:57:23;6.70;;;4.03;;
24090;SDS011;12272;52.426;17.100;2024-03-25T16:02:25;4.60;;;3.87;;
24090;SDS011;12272;52.426;17.100;2024-03-25T16:07:27;8.27;;;4.50;;
24090;SDS011;12272;52.426;17.100;2024-03-25T16:12:28;5.40;;;3.87;;
24090;SDS011;12272;52.426;17.100;2024-03-25T16:17:30;6.50;;;4.63;;
24090;SDS011;12272;52.426;17.100;2024-03-25T16:22:32;5.70;;;3.63;;
24090;SDS011;12272;52.426;17.100;2024-03-25T16:27:34;3.77;;;2.30;;
24090;SDS011;12272;52.426;17.100;2024-03-25T16:32:36;4.10;;;3.30;;
24090;SDS011;12272;52.426;17.100;2024-03-25T16:37:38;4.67;;;3.07;;
24090;SDS011;12272;52.426;17.100;2024-03-25T16:42:40;5.60;;;3.37;;
24090;SDS011;12272;52.426;17.100;2024-03-25T16:47:41;3.13;;;2.53;;
24090;SDS011;12272;52.426;17.100;2024-03-25T16:52:43;3.03;;;2.50;;
24090;SDS011;12272;52.426;17.100;2024-03-25T16:57:45;4.40;;;3.03;;
24090;SDS011;12272;52.426;17.100;2024-03-25T17:02:47;5.17;;;3.33;;
24090;SDS011;12272;52.426;17.100;2024-03-25T17:07:48;4.20;;;2.87;;
24090;SDS011;12272;52.426;17.100;2024-03-25T17:12:50;3.63;;;2.47;;
24090;SDS011;12272;52.426;17.100;2024-03-25T17:17:52;4.67;;;2.40;;
24090;SDS011;12272;52.426;17.100;2024-03-25T17:22:53;3.03;;;2.73;;
24090;SDS011;12272;52.426;17.100;2024-03-25T17:27:55;3.87;;;3.13;;
24090;SDS011;12272;52.426;17.100;2024-03-25T17:32:57;3.40;;;3.00;;
24090;SDS011;12272;52.426;17.100;2024-03-25T17:37:58;3.10;;;2.50;;
24090;SDS011;12272;52.426;17.100;2024-03-25T17:43:00;3.70;;;3.23;;
24090;SDS011;12272;52.426;17.100;2024-03-25T17:48:02;3.73;;;2.90;;
24090;SDS011;12272;52.426;17.100;2024-03-25T17:53:04;3.03;;;2.70;;
24090;SDS011;12272;52.426;17.100;2024-03-25T17:58:06;4.77;;;3.03;;
24090;SDS011;12272;52.426;17.100;2024-03-25T18:03:08;6.50;;;3.00;;
24090;SDS011;12272;52.426;17.100;2024-03-25T18:08:10;5.27;;;3.60;;
24090;SDS011;12272;52.426;17.100;2024-03-25T18:13:12;4.60;;;3.27;;
24090;SDS011;12272;52.426;17.100;2024-03-25T18:18:17;3.97;;;3.13;;
24090;SDS011;12272;52.426;17.100;2024-03-25T18:23:19;4.07;;;3.07;;
24090;SDS011;12272;52.426;17.100;2024-03-25T18:28:21;3.43;;;2.77;;
24090;SDS011;12272;52.426;17.100;2024-03-25T18:33:22;5.77;;;3.60;;
24090;SDS011;12272;52.426;17.100;2024-03-25T18:38:24;6.37;;;4.63;;
24090;SDS011;12272;52.426;17.100;2024-03-25T18:43:25;4.90;;;3.70;;
24090;SDS011;12272;52.426;17.100;2024-03-25T18:48:27;6.63;;;5.37;;
24090;SDS011;12272;52.426;17.100;2024-03-25T18:53:28;4.13;;;3.23;;
24090;SDS011;12272;52.426;17.100;2024-03-25T18:58:30;11.40;;;7.73;;
24090;SDS011;12272;52.426;17.100;2024-03-25T19:03:32;3.93;;;3.37;;
24090;SDS011;12272;52.426;17.100;2024-03-25T19:08:34;6.63;;;5.67;;
24090;SDS011;12272;52.426;17.100;2024-03-25T19:13:36;11.60;;;6.77;;
24090;SDS011;12272;52.426;17.100;2024-03-25T19:18:37;9.87;;;6.67;;
24090;SDS011;12272;52.426;17.100;2024-03-25T19:23:41;9.03;;;6.13;;
24090;SDS011;12272;52.426;17.100;2024-03-25T19:28:43;8.40;;;5.50;;
24090;SDS011;12272;52.426;17.100;2024-03-25T19:33:45;8.03;;;6.13;;
24090;SDS011;12272;52.426;17.100;2024-03-25T19:38:46;14.53;;;9.23;;
24090;SDS011;12272;52.426;17.100;2024-03-25T19:43:49;16.53;;;10.27;;
24090;SDS011;12272;52.426;17.100;2024-03-25T19:48:52;11.60;;;6.80;;
24090;SDS011;12272;52.426;17.100;2024-03-25T19:53:55;13.57;;;7.97;;
24090;SDS011;12272;52.426;17.100;2024-03-25T19:58:57;6.37;;;5.37;;
24090;SDS011;12272;52.426;17.100;2024-03-25T20:03:59;8.07;;;6.47;;
24090;SDS011;12272;52.426;17.100;2024-03-25T20:09:00;8.20;;;6.87;;
24090;SDS011;12272;52.426;17.100;2024-03-25T20:14:02;9.97;;;7.27;;
24090;SDS011;12272;52.426;17.100;2024-03-25T20:19:04;9.83;;;8.27;;
24090;SDS011;12272;52.426;17.100;2024-03-25T20:24:06;9.80;;;7.70;;
24090;SDS011;12272;52.426;17.100;2024-03-25T20:29:08;7.57;;;6.43;;
24090;SDS011;12272;52.426;17.100;2024-03-25T20:34:10;14.30;;;10.20;;
24090;SDS011;12272;52.426;17.100;2024-03-25T20:39:11;24.57;;;14.07;;
24090;SDS011;12272;52.426;17.100;2024-03-25T20:44:13;31.23;;;16.47;;
24090;SDS011;12272;52.426;17.100;2024-03-25T20:49:14;29.03;;;16.00;;
24090;SDS011;12272;52.426;17.100;2024-03-25T20:54:16;40.57;;;19.47;;
24090;SDS011;12272;52.426;17.100;2024-03-25T20:59:18;30.27;;;17.30;;
24090;SDS011;12272;52.426;17.100;2024-03-25T21:04:19;31.10;;;16.27;;
24090;SDS011;12272;52.426;17.100;2024-03-25T21:09:21;53.40;;;29.30;;
24090;SDS011;12272;52.426;17.100;2024-03-25T21:14:23;93.23;;;49.03;;
24090;SDS011;12272;52.426;17.100;2024-03-25T21:19:25;114.47;;;56.37;;
24090;SDS011;12272;52.426;17.100;2024-03-25T21:24:27;52.23;;;23.63;;
24090;SDS011;12272;52.426;17.100;2024-03-25T21:29:29;30.23;;;16.43;;
24090;SDS011;12272;52.426;17.100;2024-03-25T21:34:30;48.87;;;25.87;;
24090;SDS011;12272;52.426;17.100;2024-03-25T21:39:33;57.50;;;29.30;;
24090;SDS011;12272;52.426;17.100;2024-03-25T21:44:34;39.07;;;20.60;;
24090;SDS011;12272;52.426;17.100;2024-03-25T21:49:36;47.63;;;23.53;;
24090;SDS011;12272;52.426;17.100;2024-03-25T21:54:38;62.27;;;34.37;;
24090;SDS011;12272;52.426;17.100;2024-03-25T21:59:41;64.00;;;30.70;;
24090;SDS011;12272;52.426;17.100;2024-03-25T22:04:45;64.23;;;34.13;;
24090;SDS011;12272;52.426;17.100;2024-03-25T22:09:48;56.03;;;30.50;;
24090;SDS011;12272;52.426;17.100;2024-03-25T22:14:49;30.87;;;18.00;;
24090;SDS011;12272;52.426;17.100;2024-03-25T22:19:51;52.13;;;29.70;;
24090;SDS011;12272;52.426;17.100;2024-03-25T22:24:52;57.83;;;32.63;;
24090;SDS011;12272;52.426;17.100;2024-03-25T22:29:54;56.67;;;31.17;;
24090;SDS011;12272;52.426;17.100;2024-03-25T22:34:56;51.87;;;30.03;;
24090;SDS011;12272;52.426;17.100;2024-03-25T22:39:57;45.23;;;25.97;;
24090;SDS011;12272;52.426;17.100;2024-03-25T22:44:59;44.67;;;27.33;;
24090;SDS011;12272;52.426;17.100;2024-03-25T22:50:01;43.20;;;25.07;;
24090;SDS011;12272;52.426;17.100;2024-03-25T22:55:02;42.40;;;24.97;;
24090;SDS011;12272;52.426;17.100;2024-03-25T23:00:04;50.60;;;27.33;;
24090;SDS011;12272;52.426;17.100;2024-03-25T23:05:15;44.70;;;26.80;;
24090;SDS011;12272;52.426;17.100;2024-03-25T23:10:18;38.07;;;24.10;;
24090;SDS011;12272;52.426;17.100;2024-03-25T23:15:20;46.03;;;26.80;;
24090;SDS011;12272;52.426;17.100;2024-03-25T23:20:21;25.77;;;17.03;;
24090;SDS011;12272;52.426;17.100;2024-03-25T23:25:23;35.00;;;22.43;;
24090;SDS011;12272;52.426;17.100;2024-03-25T23:30:25;38.33;;;21.80;;
24090;SDS011;12272;52.426;17.100;2024-03-25T23:35:27;31.53;;;19.63;;
24090;SDS011;12272;52.426;17.100;2024-03-25T23:40:29;33.57;;;21.33;;
24090;SDS011;12272;52.426;17.100;2024-03-25T23:45:31;34.43;;;21.20;;
24090;SDS011;12272;52.426;17.100;2024-03-25T23:50:33;20.50;;;12.57;;
24090;SDS011;12272;52.426;17.100;2024-03-25T23:55:35;28.47;;;17.77;;
